모두
Newcastle Regional Heliport Airport (Newcastle, NSW) YNRH 기상
There is no TAF data available at YNRH. Showing TAF data for YWLM (8 mi 동북).
NTL 터미널 지역 예측(YNRH에 대한 데이터 없음)
| Here is the undecoded forecast: 2026/05/03 21:35 YWLM 032135Z 0322/0418 VRB03KT CAVOK FM040000 03008KT CAVOK FM040600 08008KT 9999 -SHRA SCT040 FM041200 VRB03KT 9999 -SHRA BKN020 INTER 0406/0416 34020G35KT 4000 SHRA SCT015 FEW050TCU PROB30 INTER 0408/0416 VRB25G40KT 2000 TSRA BKN015 SCT050CB RMK T 18 24 25 22 Q 1018 1017 1015 1014 TAF3 VALID TL 040700 |
There is no METAR data available at YNRH. Showing METAR data for YWLM (8 mi 동북).
최근 NTL METAR 이력(YNRH에 대한 데이터 없음)
| Date | Time (AEST) | Flight Rules | Wind Dir. | Speed | Type | Height AGL (ft) | Visibility | Temp (°C) | Temp (°F) | Dew Point (°C) | Dew Point (°F) | Rel. Humid. | Pressure | Density Altitude | Remarks |
|---|---|---|---|---|---|---|---|---|---|---|---|---|---|---|---|
| 04-5월 | 08:00 | VFR | 330° | 1 kt | Clouds and visibility are OK. | >= 10 km | 16° | 60° | 15° | 59° | 94% | 1018 mb | 9 ft | ||
| 04-5월 | 07:30 | VFR | Calm | Clouds and visibility are OK. | >= 10 km | 13° | 55° | 12° | 53° | 94% | 1017 mb | -321 ft | |||
| 04-5월 | 07:00 | VFR | Calm | Clouds and visibility are OK. | >= 10 km | 13° | 55° | 12° | 53° | 94% | 1017 mb | -321 ft | |||
| 04-5월 | 06:30 | VFR | Calm | 10000 meters | 12° | 53° | 10° | 50° | 88% | 1017 mb | -441 ft | ||||
| 04-5월 | 06:00 | VFR | 30° | 1 kt | 10000 meters | 13° | 55° | 11° | 51° | 88% | 1016 mb | -291 ft | |||
| 04-5월 | 05:30 | VFR | 350° | 2 kt | 10000 meters | 13° | 55° | 12° | 53° | 94% | 1016 mb | -291 ft | |||
| 04-5월 | 05:00 | VFR | Calm | 10000 meters | 13° | 55° | 12° | 53° | 94% | 1016 mb | -291 ft | ||||
| 04-5월 | 04:30 | VFR | 20° | 1 kt | 10000 meters | 13° | 55° | 11° | 51° | 88% | 1016 mb | -291 ft | |||
| 04-5월 | 04:00 | VFR | Calm | 10000 meters | 14° | 57° | 12° | 53° | 88% | 1016 mb | -171 ft | ||||
| 04-5월 | 03:30 | VFR | Calm | 10000 meters | 15° | 59° | 14° | 57° | 94% | 1016 mb | -51 ft | ||||
| 04-5월 | 03:00 | VFR | Calm | 10000 meters | 15° | 59° | 13° | 55° | 88% | 1016 mb | -51 ft | ||||
| 04-5월 | 02:30 | VFR | Calm | 10000 meters | 17° | 62° | 14° | 57° | 82% | 1016 mb | 189 ft | ||||
| 04-5월 | 02:00 | VFR | 10° | 2 kt | 10000 meters | 17° | 62° | 15° | 59° | 88% | 1017 mb | 159 ft | |||
| 04-5월 | 01:30 | VFR | 20° | 4 kt | 10000 meters | 18° | 64° | 15° | 59° | 83% | 1017 mb | 279 ft | |||
| 04-5월 | 01:00 | VFR | 10° | 2 kt | 10000 meters | 18° | 64° | 15° | 59° | 83% | 1017 mb | 279 ft | |||
| 04-5월 | 00:30 | VFR | 20° | 3 kt | 10000 meters | 19° | 66° | 15° | 59° | 78% | 1017 mb | 399 ft | |||
| 04-5월 | 00:00 | VFR | 60° | 2 kt | 10000 meters | 19° | 66° | 15° | 59° | 78% | 1018 mb | 369 ft | |||
| 03-5월 | 23:30 | VFR | 50° | 4 kt | 10000 meters | 20° | 68° | 15° | 59° | 73% | 1018 mb | 489 ft | |||
| 03-5월 | 23:00 | VFR | 30° | 5 kt | 10000 meters | 20° | 68° | 15° | 59° | 73% | 1018 mb | 489 ft | |||
| 03-5월 | 22:00 | VFR | 40° | 7 kt | 10000 meters | 20° | 68° | 16° | 60° | 78% | 1019 mb | 460 ft | |||
| 03-5월 | 21:30 | VFR | 30° | 8 kt | 10000 meters | 21° | 69° | 15° | 59° | 69% | 1018 mb | 609 ft | |||
| 03-5월 | 21:00 | VFR | 30° | 9 kt | 10000 meters | 21° | 69° | 15° | 59° | 69% | 1018 mb | 609 ft | |||
| 03-5월 | 20:30 | VFR | 30° | 6 kt | 10000 meters | 21° | 69° | 15° | 59° | 69% | 1018 mb | 609 ft | |||
| 03-5월 | 20:00 | VFR | 40° | 6 kt | 10000 meters | 21° | 69° | 15° | 59° | 69% | 1018 mb | 609 ft |
로그인
| 귀하의 브라우저는 지원되지 않습니다.. 브라우저를 업그레이드하세요 |
